createdAt,value
2019-01-24T00:02:21.467Z,70.97
2019-01-24T00:04:51.293Z,70.10
2019-01-24T00:07:19.522Z,75.10
2019-01-24T00:09:47.656Z,77.07
2019-01-24T00:12:15.941Z,77.43
2019-01-24T00:14:44.122Z,75.47
2019-01-24T00:17:12.429Z,77.40
2019-01-24T00:19:40.603Z,71.77
2019-01-24T00:22:08.734Z,71.10
2019-01-24T00:24:37.028Z,82.57
2019-01-24T00:27:05.148Z,71.30
2019-01-24T00:29:34.006Z,72.73
2019-01-24T00:32:02.168Z,73.17
2019-01-24T00:34:30.351Z,73.20
2019-01-24T00:36:58.516Z,64.23
2019-01-24T00:39:26.705Z,68.40
2019-01-24T00:41:54.855Z,69.40
2019-01-24T00:44:23.024Z,71.83
2019-01-24T00:46:52.781Z,72.60
2019-01-24T00:49:21.006Z,77.57
2019-01-24T00:52:08.547Z,72.33
2019-01-24T00:54:36.772Z,74.07
2019-01-24T00:57:04.981Z,74.13
2019-01-24T00:59:33.157Z,78.10
2019-01-24T01:02:01.312Z,75.77
2019-01-24T01:04:29.850Z,78.23
2019-01-24T01:06:58.322Z,91.47
2019-01-24T01:09:26.474Z,81.70
2019-01-24T01:11:57.675Z,86.23
2019-01-24T01:14:25.840Z,87.30
2019-01-24T01:16:54.029Z,88.82
2019-01-24T01:19:22.084Z,84.03
2019-01-24T01:21:50.212Z,84.73
2019-01-24T01:24:18.304Z,75.50
2019-01-24T01:26:46.357Z,82.97
2019-01-24T01:29:14.501Z,91.77
2019-01-24T01:31:42.595Z,74.90
2019-01-24T01:34:12.539Z,79.40
2019-01-24T01:36:41.009Z,84.13
2019-01-24T01:39:09.165Z,78.97
2019-01-24T01:41:38.075Z,79.87
2019-01-24T01:44:06.147Z,84.52
2019-01-24T01:46:37.239Z,83.20
2019-01-24T01:49:05.412Z,84.40
2019-01-24T01:51:33.673Z,74.00
2019-01-24T01:54:04.622Z,77.72
2019-01-24T01:56:32.974Z,84.67
2019-01-24T01:59:01.924Z,93.20
2019-01-24T02:01:29.966Z,77.40
2019-01-24T02:03:58.075Z,80.13
2019-01-24T02:06:26.107Z,79.17
2019-01-24T02:08:54.188Z,77.70
2019-01-24T02:11:22.215Z,86.60
2019-01-24T02:13:50.298Z,79.30
2019-01-24T02:16:18.438Z,77.83
2019-01-24T02:18:46.460Z,80.47
2019-01-24T02:21:14.754Z,78.17
2019-01-24T02:23:42.791Z,78.93
2019-01-24T02:26:10.848Z,70.90
2019-01-24T02:28:38.876Z,87.77
2019-01-24T02:31:06.910Z,85.83
2019-01-24T02:33:35.475Z,73.90
2019-01-24T02:36:04.627Z,81.47
2019-01-24T02:38:32.750Z,73.70
2019-01-24T02:41:01.109Z,70.23
2019-01-24T02:43:29.265Z,76.03
2019-01-24T02:45:57.394Z,74.60
2019-01-24T02:48:25.613Z,71.57
2019-01-24T02:50:53.851Z,75.70
2019-01-24T02:53:21.971Z,75.30
2019-01-24T02:55:50.012Z,72.03
2019-01-24T02:58:18.093Z,79.37
2019-01-24T03:00:46.164Z,73.03
2019-01-24T03:03:15.840Z,76.90
2019-01-24T03:05:43.853Z,79.30
2019-01-24T03:08:12.057Z,75.72
2019-01-24T03:10:40.166Z,77.07
2019-01-24T03:13:08.921Z,66.83
2019-01-24T03:15:37.198Z,71.10
2019-01-24T03:18:05.442Z,78.27
2019-01-24T03:20:33.597Z,80.80
2019-01-24T03:23:01.783Z,81.37
2019-01-24T03:25:30.008Z,78.42
2019-01-24T03:27:58.231Z,79.73
2019-01-24T03:30:27.066Z,69.97
2019-01-24T03:32:55.187Z,71.73
2019-01-24T03:35:24.315Z,76.80
2019-01-24T03:37:52.511Z,75.47
2019-01-24T03:40:20.634Z,73.87
2019-01-24T03:42:48.755Z,72.95
2019-01-24T03:45:17.186Z,69.13
2019-01-24T03:47:45.261Z,79.17
2019-01-24T03:50:16.665Z,78.50
2019-01-24T03:52:45.458Z,73.67
2019-01-24T03:55:14.421Z,77.50
2019-01-24T03:57:42.862Z,81.43
2019-01-24T04:00:17.827Z,82.63
2019-01-24T04:02:46.073Z,78.17
2019-01-24T04:05:14.226Z,75.97
2019-01-24T04:07:42.381Z,74.23
2019-01-24T04:10:11.897Z,91.43
2019-01-24T04:12:40.017Z,73.43
2019-01-24T04:15:09.811Z,72.87
2019-01-24T04:17:37.993Z,74.97
2019-01-24T04:20:07.355Z,79.93
2019-01-24T04:22:35.680Z,79.50
2019-01-24T04:25:04.546Z,77.90
2019-01-24T04:27:32.722Z,82.97
2019-01-24T04:30:00.803Z,70.15
2019-01-24T04:32:28.864Z,76.53
2019-01-24T04:34:57.000Z,77.13
2019-01-24T04:37:26.741Z,82.60
2019-01-24T04:39:54.797Z,80.23
2019-01-24T04:42:22.930Z,82.23
2019-01-24T04:44:51.063Z,96.33
2019-01-24T04:47:19.085Z,83.17
2019-01-24T04:49:47.226Z,86.00
2019-01-24T04:52:15.346Z,81.37
2019-01-24T04:54:43.408Z,77.82
2019-01-24T04:57:11.520Z,79.57
2019-01-24T04:59:40.422Z,83.40
2019-01-24T05:02:08.454Z,85.00
2019-01-24T05:04:36.552Z,83.63
2019-01-24T05:07:04.631Z,80.67
2019-01-24T05:09:32.711Z,78.67
2019-01-24T05:12:00.812Z,88.70
2019-01-24T05:14:28.907Z,86.87
2019-01-24T05:16:58.670Z,91.40
2019-01-24T05:19:26.879Z,87.67
2019-01-24T05:21:55.086Z,85.27
2019-01-24T05:24:23.140Z,95.00
2019-01-24T05:26:51.354Z,91.93
2019-01-24T05:29:19.425Z,93.27
2019-01-24T05:31:47.591Z,81.10
2019-01-24T05:34:18.667Z,83.57
2019-01-24T05:36:46.760Z,84.87
2019-01-24T05:39:15.558Z,83.60
2019-01-24T05:41:43.628Z,77.12
2019-01-24T05:44:11.731Z,79.23
2019-01-24T05:46:41.388Z,78.70
2019-01-24T05:49:09.508Z,90.00
2019-01-24T05:51:37.695Z,74.65
2019-01-24T05:54:05.855Z,82.13
2019-01-24T05:59:08.168Z,85.73
2019-01-24T06:01:36.831Z,84.60
2019-01-24T06:04:06.089Z,81.87
2019-01-24T06:06:34.337Z,84.80
2019-01-24T06:09:02.368Z,84.30
2019-01-24T06:11:30.466Z,94.80
2019-01-24T06:13:58.644Z,82.67
2019-01-24T06:16:26.704Z,88.70
2019-01-24T06:18:54.801Z,86.37
2019-01-24T06:21:23.094Z,82.93
2019-01-24T06:23:51.244Z,89.13
2019-01-24T06:26:19.279Z,79.03
2019-01-24T06:28:47.352Z,79.22
2019-01-24T06:31:15.399Z,91.67
2019-01-24T06:33:43.445Z,82.07
2019-01-24T06:36:11.594Z,81.13
2019-01-24T06:38:39.720Z,87.17
2019-01-24T06:41:07.806Z,80.80
2019-01-24T06:43:35.991Z,87.03
2019-01-24T06:46:04.083Z,79.80
2019-01-24T06:48:32.264Z,96.87
2019-01-24T06:51:00.392Z,97.57
2019-01-24T06:53:28.574Z,96.37
2019-01-24T06:55:56.686Z,93.75
2019-01-24T06:58:24.743Z,101.80
2019-01-24T07:00:52.825Z,85.27
2019-01-24T07:03:20.907Z,101.27
2019-01-24T07:05:55.206Z,96.33
2019-01-24T07:08:18.800Z,90.33
2019-01-24T07:10:46.874Z,84.67
2019-01-24T07:13:15.183Z,88.33
2019-01-24T07:15:43.408Z,94.60
2019-01-24T07:18:11.489Z,91.80
2019-01-24T07:20:39.603Z,91.83
2019-01-24T07:23:07.691Z,85.67
2019-01-24T07:25:35.747Z,91.07
2019-01-24T07:28:03.888Z,98.15
2019-01-24T07:30:31.969Z,84.33
2019-01-24T07:33:07.120Z,89.22
2019-01-24T07:35:35.138Z,86.27
2019-01-24T07:38:03.272Z,91.23
2019-01-24T07:40:31.389Z,90.60
2019-01-24T07:42:59.500Z,93.90
2019-01-24T07:45:28.937Z,86.67
2019-01-24T07:47:57.118Z,83.67
2019-01-24T07:50:25.146Z,94.40
2019-01-24T07:52:53.246Z,96.70
2019-01-24T07:55:21.384Z,94.57
2019-01-24T07:57:49.559Z,89.97
2019-01-24T08:00:21.875Z,92.60
2019-01-24T08:02:49.956Z,87.70
2019-01-24T08:05:18.056Z,84.83
2019-01-24T08:07:46.101Z,88.20
2019-01-24T08:10:15.288Z,91.97
2019-01-24T08:12:43.539Z,89.40
2019-01-24T08:15:12.568Z,94.37
2019-01-24T08:17:40.903Z,86.32
2019-01-24T08:20:13.132Z,93.50
2019-01-24T08:22:41.163Z,94.17
2019-01-24T08:25:09.569Z,100.33
2019-01-24T08:27:37.710Z,93.00
2019-01-24T08:30:07.454Z,99.92
2019-01-24T08:32:35.461Z,101.87
2019-01-24T08:35:04.517Z,91.53
2019-01-24T08:37:32.527Z,92.77
2019-01-24T08:40:00.597Z,90.22
2019-01-24T08:42:29.258Z,91.33
2019-01-24T08:44:57.344Z,100.37
2019-01-24T08:47:25.394Z,86.02
2019-01-24T08:49:53.494Z,90.97
2019-01-24T08:52:21.518Z,96.63
2019-01-24T08:54:49.545Z,85.80
2019-01-24T08:57:17.607Z,84.03
2019-01-24T08:59:45.616Z,98.07
2019-01-24T09:02:13.668Z,97.47
2019-01-24T09:04:43.412Z,89.13
2019-01-24T09:07:11.561Z,88.00
2019-01-24T09:09:41.219Z,91.97
2019-01-24T09:12:09.341Z,87.97
2019-01-24T09:14:37.476Z,87.43
2019-01-24T09:17:05.517Z,101.97
2019-01-24T09:19:33.814Z,93.58
2019-01-24T09:22:01.970Z,84.97
2019-01-24T09:24:30.072Z,84.30
2019-01-24T09:26:58.556Z,95.23
2019-01-24T09:29:26.606Z,87.43
2019-01-24T09:31:54.672Z,90.97
2019-01-24T09:34:22.699Z,95.57
2019-01-24T09:36:50.829Z,96.27
2019-01-24T09:39:21.776Z,84.47
2019-01-24T09:41:49.906Z,99.00
2019-01-24T09:44:18.021Z,88.83
2019-01-24T09:46:46.108Z,101.87
2019-01-24T09:49:14.239Z,98.15
2019-01-24T09:51:42.376Z,87.00
2019-01-24T09:54:15.652Z,94.60
2019-01-24T09:56:43.739Z,100.30
2019-01-24T09:59:11.856Z,92.20
2019-01-24T10:01:39.940Z,109.53
2019-01-24T10:04:08.043Z,92.47
2019-01-24T10:06:36.553Z,99.03
2019-01-24T10:09:05.754Z,99.53
2019-01-24T10:11:33.800Z,95.13
2019-01-24T10:14:03.523Z,96.02
2019-01-24T10:16:31.755Z,109.25
2019-01-24T10:18:59.956Z,99.83
2019-01-24T10:21:28.041Z,101.93
2019-01-24T10:23:56.135Z,102.73
2019-01-24T10:26:24.192Z,96.33
2019-01-24T10:28:52.215Z,103.20
2019-01-24T10:31:20.309Z,109.13
2019-01-24T10:33:48.356Z,109.35
2019-01-24T10:36:16.435Z,100.07
2019-01-24T10:38:44.592Z,103.53
2019-01-24T10:41:14.400Z,108.65
2019-01-24T10:43:42.617Z,98.37
2019-01-24T10:46:21.338Z,111.13
2019-01-24T10:48:49.828Z,107.50
2019-01-24T10:51:17.873Z,98.37
2019-01-24T10:53:59.823Z,111.40
2019-01-24T10:56:17.483Z,105.17
2019-01-24T11:01:43.567Z,107.30
2019-01-24T11:04:20.072Z,115.17
2019-01-24T11:06:55.267Z,102.53
2019-01-24T11:09:28.159Z,100.37
2019-01-24T11:11:59.286Z,111.23
2019-01-24T11:14:28.904Z,103.32
2019-01-24T11:17:01.213Z,94.40
2019-01-24T11:19:45.946Z,111.55
2019-01-24T11:22:22.762Z,111.47
2019-01-24T11:24:52.685Z,112.53
2019-01-24T11:27:26.036Z,116.83
2019-01-24T11:29:57.278Z,105.67
2019-01-24T11:32:33.893Z,122.27
2019-01-24T11:35:16.040Z,120.50
2019-01-24T11:37:51.188Z,112.67
2019-01-24T11:40:38.845Z,124.37
2019-01-24T11:43:03.538Z,130.50
2019-01-24T11:45:35.079Z,122.60
2019-01-24T11:48:08.487Z,135.60
2019-01-24T11:50:39.832Z,133.57
2019-01-24T11:53:12.622Z,128.07
2019-01-24T11:55:54.222Z,129.73
2019-01-24T11:58:22.360Z,127.80
2019-01-24T12:00:57.388Z,124.60
2019-01-24T12:03:39.080Z,126.15
2019-01-24T12:06:15.923Z,130.07
2019-01-24T12:08:48.906Z,119.57
2019-01-24T12:11:21.482Z,121.67
2019-01-24T12:13:49.725Z,120.30
2019-01-24T12:16:25.020Z,123.40
2019-01-24T12:18:54.824Z,121.90
2019-01-24T12:21:26.224Z,128.77
2019-01-24T12:23:59.879Z,121.03
2019-01-24T12:26:54.391Z,128.38
2019-01-24T12:29:21.440Z,130.93
2019-01-24T12:31:49.516Z,128.67
2019-01-24T12:34:17.638Z,130.17
2019-01-24T12:36:45.707Z,125.63
2019-01-24T12:39:13.860Z,128.73
2019-01-24T12:41:41.935Z,125.67
2019-01-24T12:44:10.021Z,126.47
2019-01-24T12:46:38.053Z,137.07
2019-01-24T12:49:06.077Z,122.50
2019-01-24T12:51:34.265Z,123.00
2019-01-24T12:54:02.513Z,141.10
2019-01-24T12:56:30.666Z,124.50
2019-01-24T12:58:58.852Z,127.35
2019-01-24T13:01:26.993Z,134.73
2019-01-24T13:03:55.061Z,125.67
2019-01-24T13:06:23.201Z,125.13
2019-01-24T13:08:51.955Z,125.37
2019-01-24T13:11:20.078Z,125.63
2019-01-24T13:13:48.192Z,124.60
2019-01-24T13:16:16.348Z,124.73
2019-01-24T13:18:48.124Z,123.60
2019-01-24T13:21:16.092Z,117.37
2019-01-24T13:23:44.168Z,133.00
2019-01-24T13:26:13.057Z,123.83
2019-01-24T13:28:42.802Z,137.60
2019-01-24T13:31:11.200Z,106.20
2019-01-24T13:33:39.315Z,125.27
2019-01-24T13:36:07.472Z,122.93
2019-01-24T13:38:35.548Z,126.37
2019-01-24T13:41:03.915Z,125.67
2019-01-24T13:43:32.240Z,117.00
2019-01-24T13:46:00.579Z,122.90
2019-01-24T13:48:28.958Z,114.73
2019-01-24T13:51:00.791Z,130.07
2019-01-24T13:53:29.273Z,125.50
2019-01-24T13:55:57.639Z,120.47
2019-01-24T13:58:26.116Z,117.27
2019-01-24T14:00:54.444Z,113.10
2019-01-24T14:03:28.933Z,132.30
2019-01-24T14:05:57.337Z,121.67
2019-01-24T14:08:25.657Z,114.50
2019-01-24T14:10:53.979Z,119.57
2019-01-24T14:13:22.250Z,122.30
2019-01-24T14:15:53.905Z,121.87
2019-01-24T14:18:22.232Z,115.10
2019-01-24T14:20:53.539Z,120.50
2019-01-24T14:23:21.976Z,124.25
2019-01-24T14:25:54.549Z,126.73
2019-01-24T14:28:22.835Z,114.13
2019-01-24T14:30:52.784Z,123.50
2019-01-24T14:33:22.015Z,123.72
2019-01-24T14:35:50.386Z,113.40
2019-01-24T14:38:22.912Z,127.12
2019-01-24T14:40:51.356Z,121.93
2019-01-24T14:43:28.492Z,119.80
2019-01-24T14:46:01.744Z,115.07
2019-01-24T14:48:31.116Z,117.37
2019-01-24T14:50:59.674Z,116.50
2019-01-24T14:53:29.962Z,112.60
2019-01-24T14:55:58.537Z,113.90
2019-01-24T14:58:26.855Z,115.35
2019-01-24T15:00:58.724Z,117.67
2019-01-24T15:03:38.024Z,113.57
2019-01-24T15:06:01.538Z,113.50
2019-01-24T15:08:34.003Z,113.80
2019-01-24T15:11:02.358Z,116.50
2019-01-24T15:13:37.885Z,123.10
2019-01-24T15:16:06.508Z,109.73
2019-01-24T15:18:36.841Z,114.10
2019-01-24T15:21:04.891Z,110.75
2019-01-24T15:23:34.416Z,117.57
2019-01-24T15:26:02.779Z,129.10
2019-01-24T15:28:31.062Z,113.67
2019-01-24T15:30:59.353Z,124.75
2019-01-24T15:33:27.770Z,116.67
2019-01-24T15:35:56.167Z,110.30
2019-01-24T15:38:24.535Z,107.95
2019-01-24T15:40:52.825Z,117.70
2019-01-24T15:43:21.129Z,115.97
2019-01-24T15:45:49.408Z,110.07
2019-01-24T15:48:17.751Z,108.42
2019-01-24T15:50:46.033Z,118.47
2019-01-24T15:53:14.364Z,119.93
2019-01-24T15:55:42.624Z,114.27
2019-01-24T15:58:10.929Z,116.70
2019-01-24T16:00:39.207Z,133.60
2019-01-24T16:03:07.483Z,129.47
2019-01-24T16:05:35.813Z,116.82
2019-01-24T16:08:04.958Z,122.17
2019-01-24T16:10:34.178Z,118.43
2019-01-24T16:13:02.655Z,119.40
2019-01-24T16:15:35.601Z,126.20
2019-01-24T16:18:05.186Z,114.93
2019-01-24T16:20:34.533Z,113.97
2019-01-24T16:23:02.852Z,124.02
2019-01-24T16:25:33.001Z,117.40
2019-01-24T16:28:11.805Z,118.97
2019-01-24T16:30:40.255Z,119.97
2019-01-24T16:33:09.277Z,112.72
2019-01-24T16:35:37.798Z,121.60
2019-01-24T16:38:09.656Z,112.70
2019-01-24T16:40:36.384Z,118.30
2019-01-24T16:43:05.362Z,110.93
2019-01-24T16:45:35.367Z,110.53
2019-01-24T16:48:03.676Z,114.50
2019-01-24T16:50:31.940Z,103.60
2019-01-24T16:53:00.332Z,107.27
2019-01-24T16:55:28.659Z,121.03
2019-01-24T16:58:02.931Z,110.27
2019-01-24T17:00:42.226Z,116.00
2019-01-24T17:03:10.593Z,114.03
2019-01-24T17:05:38.971Z,120.00
2019-01-24T17:08:07.410Z,107.40
2019-01-24T17:10:35.793Z,106.05
2019-01-24T17:13:04.446Z,140.50
2019-01-24T17:15:39.694Z,109.52
2019-01-24T17:18:05.565Z,116.77
2019-01-24T17:20:34.180Z,127.33
2019-01-24T17:23:02.502Z,115.00
2019-01-24T17:25:33.612Z,103.67
2019-01-24T17:28:01.932Z,140.07
2019-01-24T17:33:26.088Z,108.10
2019-01-24T17:35:55.309Z,105.23
2019-01-24T17:38:24.114Z,104.80
2019-01-24T17:40:53.173Z,108.83
2019-01-24T17:43:21.565Z,104.57
2019-01-24T17:45:49.917Z,98.17
2019-01-24T17:48:18.261Z,109.47
2019-01-24T17:50:58.620Z,105.20
2019-01-24T17:53:16.579Z,105.25
2019-01-24T17:55:48.477Z,102.37
2019-01-24T17:58:16.955Z,101.40
2019-01-24T18:00:57.377Z,117.47
2019-01-24T18:03:27.346Z,101.73
2019-01-24T18:06:09.282Z,103.17
2019-01-24T18:08:38.147Z,101.50
2019-01-24T18:11:06.652Z,104.13
2019-01-24T18:13:36.614Z,98.77
2019-01-24T18:16:07.272Z,105.17
2019-01-24T18:18:35.605Z,111.13
2019-01-24T18:21:05.672Z,116.47
2019-01-24T18:23:34.466Z,114.70
2019-01-24T18:26:02.828Z,106.10
2019-01-24T18:28:31.096Z,116.57
2019-01-24T18:31:03.924Z,105.20
2019-01-24T18:33:32.522Z,114.00
2019-01-24T18:36:01.439Z,99.77
2019-01-24T18:38:40.807Z,98.63
2019-01-24T18:41:09.306Z,107.35
2019-01-24T18:43:37.713Z,97.33
2019-01-24T18:46:16.616Z,107.80
2019-01-24T18:48:46.614Z,91.07
2019-01-24T18:51:15.062Z,108.15
2019-01-24T18:53:43.545Z,105.30
2019-01-24T18:56:13.472Z,107.58
2019-01-24T18:58:41.821Z,108.50
2019-01-24T19:01:13.229Z,104.40
2019-01-24T19:03:41.492Z,105.75
2019-01-24T19:06:11.378Z,109.33
2019-01-24T19:08:45.889Z,107.47
2019-01-24T19:11:09.750Z,109.93
2019-01-24T19:13:38.159Z,104.33
2019-01-24T19:16:17.110Z,103.30
2019-01-24T19:18:45.443Z,100.90
2019-01-24T19:21:21.372Z,101.20
2019-01-24T19:24:04.112Z,110.40
2019-01-24T19:26:32.489Z,115.53
2019-01-24T19:29:00.766Z,99.83
2019-01-24T19:31:33.752Z,107.00
2019-01-24T19:34:02.037Z,97.27
2019-01-24T19:36:34.079Z,107.27
2019-01-24T19:39:02.521Z,111.47
2019-01-24T19:41:31.017Z,133.40
2019-01-24T19:43:59.406Z,115.97
2019-01-24T19:46:27.802Z,102.00
2019-01-24T19:48:57.083Z,104.00
2019-01-24T19:51:30.206Z,113.43
2019-01-24T19:53:58.611Z,116.43
2019-01-24T19:56:27.142Z,104.83
2019-01-24T19:59:04.394Z,111.80
2019-01-24T20:01:32.855Z,110.30
2019-01-24T20:04:01.192Z,99.37
2019-01-24T20:06:38.403Z,105.33
2019-01-24T20:09:07.269Z,98.73
2019-01-24T20:11:35.784Z,111.77
2019-01-24T20:14:08.657Z,108.90
2019-01-24T20:16:36.963Z,121.20
2019-01-24T20:19:05.312Z,110.23
2019-01-24T20:21:33.651Z,104.40
2019-01-24T20:24:02.104Z,123.00
2019-01-24T20:26:32.810Z,113.88
2019-01-24T20:29:01.096Z,124.47
2019-01-24T20:31:29.398Z,116.07
2019-01-24T20:34:04.371Z,117.63
2019-01-24T20:36:32.781Z,105.40
2019-01-24T20:39:11.709Z,109.50
2019-01-24T20:41:45.880Z,117.07
2019-01-24T20:47:48.887Z,108.43
2019-01-24T20:50:25.541Z,112.30
2019-01-24T20:52:55.913Z,122.10
2019-01-24T20:55:24.472Z,114.57
2019-01-24T20:57:56.972Z,108.03
2019-01-24T21:00:29.349Z,120.13
2019-01-24T21:02:59.332Z,121.23
2019-01-24T21:05:30.953Z,128.50
2019-01-24T21:07:59.375Z,137.00
2019-01-24T21:10:31.827Z,119.93
2019-01-24T21:13:09.849Z,125.07
2019-01-24T21:19:07.930Z,128.90
2019-01-24T21:21:36.386Z,118.80
2019-01-24T21:24:05.319Z,122.93
2019-01-24T21:26:33.801Z,110.80
2019-01-24T21:29:03.744Z,117.13
2019-01-24T21:31:33.281Z,129.77
2019-01-24T21:34:06.101Z,131.72
2019-01-24T21:36:34.436Z,134.93
2019-01-24T21:41:37.325Z,131.13
2019-01-24T21:44:10.702Z,121.15
2019-01-24T21:46:39.115Z,124.22
2019-01-24T21:49:07.504Z,132.03
2019-01-24T21:51:40.841Z,130.18
2019-01-24T21:54:09.290Z,125.97
2019-01-24T21:56:37.768Z,123.53
2019-01-24T21:59:10.739Z,114.60
2019-01-24T22:01:39.103Z,116.67
2019-01-24T22:04:07.407Z,132.33
2019-01-24T22:06:47.117Z,116.93
2019-01-24T22:09:12.809Z,118.65
2019-01-24T22:11:52.403Z,111.10
2019-01-24T22:14:24.029Z,120.27
2019-01-24T22:16:52.365Z,129.97
2019-01-24T22:19:20.680Z,164.57
2019-01-24T22:21:49.095Z,118.07
2019-01-24T22:24:17.521Z,123.38
2019-01-24T22:26:46.113Z,115.97
2019-01-24T22:29:14.506Z,116.57
2019-01-24T22:32:00.058Z,113.10
2019-01-24T22:34:15.096Z,106.47
2019-01-24T22:36:43.732Z,124.03
2019-01-24T22:39:12.222Z,124.20
2019-01-24T22:41:40.602Z,106.50
2019-01-24T22:44:09.016Z,115.47
2019-01-24T22:46:45.226Z,119.70
2019-01-24T22:49:10.239Z,123.58
2019-01-24T22:51:38.555Z,116.50
2019-01-24T22:54:06.846Z,116.67
2019-01-24T22:56:35.483Z,123.20
2019-01-24T22:59:05.582Z,122.47
2019-01-24T23:01:37.189Z,115.63
2019-01-24T23:04:07.414Z,148.32
2019-01-24T23:06:35.693Z,124.40
2019-01-24T23:09:07.648Z,138.40
2019-01-24T23:11:35.920Z,113.40
2019-01-24T23:14:06.201Z,115.07
2019-01-24T23:16:34.330Z,121.70
2019-01-24T23:19:02.585Z,112.70
2019-01-24T23:21:30.877Z,113.87
2019-01-24T23:23:59.330Z,125.37
2019-01-24T23:26:37.211Z,131.57
2019-01-24T23:29:02.678Z,112.77
2019-01-24T23:31:32.618Z,110.70
2019-01-24T23:34:00.916Z,111.27
2019-01-24T23:36:29.272Z,118.82
2019-01-24T23:38:57.664Z,130.57
2019-01-24T23:41:26.030Z,119.27
2019-01-24T23:43:54.287Z,120.17
2019-01-24T23:46:22.635Z,119.57
2019-01-24T23:48:50.942Z,120.82
2019-01-24T23:51:19.302Z,112.27
2019-01-24T23:53:48.404Z,119.45
2019-01-24T23:56:16.768Z,123.13
2019-01-24T23:58:45.299Z,112.37
